Time;durP1;ratioP1;P1;durP2;ratioP2;P2;SDS_P1;SDS_P2;PMS_P1;PMS_P2;Temp;Humidity;BMP_temperature;BMP_pressure;BME280_temperature;BME280_humidity;BME280_pressure;Samples;Min_cycle;Max_cycle;Signal;HPM_P1;HPM_P2
2022/07/20 00:00:15;;;;;;;4.00;2.10;;;;;;;19.42;58.27;97054.57;1719256;82;21039;-87
2022/07/20 00:02:43;;;;;;;4.45;2.20;;;;;;;19.41;58.54;97055.59;1732122;82;21431;-85
2022/07/20 00:05:09;;;;;;;4.83;2.47;;;;;;;19.40;58.39;97053.98;1719285;82;21297;-86
2022/07/20 00:07:35;;;;;;;4.12;2.27;;;;;;;19.40;58.46;97053.98;1728300;82;21028;-86
2022/07/20 00:12:45;;;;;;;3.42;2.00;;;;;;;19.36;58.46;97045.73;1756029;82;20952;-86
2022/07/20 00:15:10;;;;;;;4.58;2.05;;;;;;;19.36;59.00;97049.68;1729683;82;20936;-85
2022/07/20 00:17:36;;;;;;;2.87;2.08;;;;;;;19.35;59.21;97041.97;1743309;81;21023;-85
2022/07/20 00:20:03;;;;;;;4.05;2.10;;;;;;;19.36;59.27;97044.89;1728858;82;21349;-85
2022/07/20 00:22:29;;;;;;;4.53;2.12;;;;;;;19.35;58.80;97047.23;1738059;83;21074;-86
2022/07/20 00:24:55;;;;;;;4.92;2.33;;;;;;;19.34;58.85;97042.48;1750313;82;21007;-85
2022/07/20 00:27:20;;;;;;;4.40;1.90;;;;;;;19.35;58.89;97040.66;1737560;82;20991;-85
2022/07/20 00:29:46;;;;;;;2.70;1.70;;;;;;;19.33;59.14;97039.55;1749775;82;20967;-85
2022/07/20 00:32:12;;;;;;;3.77;2.00;;;;;;;19.33;58.80;97036.92;1730672;83;20974;-87
2022/07/20 00:34:37;;;;;;;3.77;1.82;;;;;;;19.33;58.52;97038.75;1750357;82;20932;-86
2022/07/20 00:37:03;;;;;;;4.72;1.92;;;;;;;19.32;58.55;97034.52;1755627;82;21325;-87
2022/07/20 00:39:29;;;;;;;3.47;1.95;;;;;;;19.31;58.61;97033.70;1745000;82;21039;-87
2022/07/20 00:41:54;;;;;;;3.25;2.00;;;;;;;19.30;58.85;97033.41;1753680;82;20999;-87
2022/07/20 00:44:22;;;;;;;5.00;2.30;;;;;;;19.30;58.83;97027.34;1755669;81;21011;-86
2022/07/20 00:46:48;;;;;;;3.60;1.80;;;;;;;19.30;58.97;97029.47;1743367;82;21043;-87
2022/07/20 00:49:15;;;;;;;3.12;1.80;;;;;;;19.28;59.28;97030.72;1748545;81;20995;-85
2022/07/20 00:51:42;;;;;;;3.87;1.85;;;;;;;19.28;59.28;97030.72;1712922;82;20999;-87
2022/07/20 00:54:08;;;;;;;3.77;2.40;;;;;;;19.28;59.36;97028.88;1743552;82;20964;-85
2022/07/20 00:56:35;;;;;;;3.08;2.10;;;;;;;19.27;58.93;97027.79;1744426;81;21011;-86
2022/07/20 00:59:08;;;;;;;4.42;2.12;;;;;;;19.27;58.53;97029.11;1728945;82;21008;-86
2022/07/20 01:01:33;;;;;;;2.72;1.98;;;;;;;19.26;58.59;97028.30;1737146;82;20976;-87
2022/07/20 01:03:59;;;;;;;3.98;2.10;;;;;;;19.25;58.93;97024.58;1755464;82;20963;-87
2022/07/20 01:06:25;;;;;;;2.67;1.98;;;;;;;19.25;58.94;97027.21;1755657;81;20928;-87
2022/07/20 01:08:51;;;;;;;4.03;2.20;;;;;;;19.24;58.88;97027.72;1755746;81;20943;-87
2022/07/20 01:11:17;;;;;;;3.22;2.17;;;;;;;19.24;58.73;97024.28;1740127;82;20971;-87
2022/07/20 01:13:42;;;;;;;3.55;2.33;;;;;;;19.22;58.85;97025.02;1747067;82;20967;-84
2022/07/20 01:16:08;;;;;;;3.37;2.10;;;;;;;19.22;58.85;97029.78;1754183;81;20976;-87
2022/07/20 01:18:34;;;;;;;4.65;1.87;;;;;;;19.19;58.47;97028.36;1744510;82;20987;-85
2022/07/20 01:21:02;;;;;;;3.60;2.17;;;;;;;19.18;58.63;97025.95;1743449;81;20976;-85
2022/07/20 01:23:28;;;;;;;3.70;2.12;;;;;;;19.16;58.74;97022.73;1713803;82;21379;-87
2022/07/20 01:25:54;;;;;;;4.40;2.25;;;;;;;19.15;58.98;97027.20;1755483;82;20963;-86
2022/07/20 01:28:19;;;;;;;6.40;2.37;;;;;;;19.15;58.64;97023.25;1743527;82;21035;-87
2022/07/20 01:30:45;;;;;;;3.10;2.20;;;;;;;19.15;59.04;97023.77;1746933;82;21375;-86
2022/07/20 01:33:11;;;;;;;3.20;2.20;;;;;;;19.15;59.12;97027.72;1749792;82;20962;-86
2022/07/20 01:35:37;;;;;;;3.72;1.95;;;;;;;19.14;59.03;97030.86;1688297;85;21330;-86
2022/07/20 01:38:03;;;;;;;4.17;2.12;;;;;;;19.13;59.23;97033.72;1688857;84;20952;-86
2022/07/20 01:40:28;;;;;;;4.20;2.22;;;;;;;19.12;59.04;97030.80;1714761;82;20975;-87
2022/07/20 01:42:54;;;;;;;4.75;2.20;;;;;;;19.09;58.86;97029.92;1755632;81;21318;-87
2022/07/20 01:45:20;;;;;;;4.08;2.33;;;;;;;19.07;59.12;97032.77;1755871;81;20920;-87
2022/07/20 01:47:45;;;;;;;6.03;2.80;;;;;;;19.07;59.42;97029.34;1746735;82;20970;-87
2022/07/20 01:50:11;;;;;;;2.50;1.90;;;;;;;19.08;59.60;97024.36;1739670;82;20992;-86
2022/07/20 01:52:37;;;;;;;5.40;2.47;;;;;;;19.07;59.69;97024.88;1756274;81;20995;-86
2022/07/20 01:55:04;;;;;;;5.33;2.42;;;;;;;19.04;59.46;97020.05;1734733;81;20975;-86
2022/07/20 01:57:31;;;;;;;3.67;2.27;;;;;;;19.07;59.55;97031.46;1709402;82;21122;-86
2022/07/20 01:59:57;;;;;;;3.62;2.47;;;;;;;19.06;59.24;97028.53;1721158;82;20977;-86
2022/07/20 02:02:22;;;;;;;3.45;1.92;;;;;;;19.06;58.96;97023.78;1726629;82;20956;-85
2022/07/20 02:04:48;;;;;;;3.72;1.90;;;;;;;19.06;59.21;97019.31;1730512;82;20964;-86
2022/07/20 02:07:14;;;;;;;4.22;2.40;;;;;;;19.05;58.98;97022.98;1749041;82;20967;-85
2022/07/20 02:09:40;;;;;;;2.60;2.00;;;;;;;19.06;59.09;97025.90;1743075;81;20954;-85
2022/07/20 02:12:06;;;;;;;2.95;1.90;;;;;;;19.06;58.89;97027.22;1718587;82;20999;-87
2022/07/20 02:14:32;;;;;;;3.05;2.10;;;;;;;19.05;58.87;97023.48;1731323;82;21048;-87
2022/07/20 02:16:57;;;;;;;3.90;1.92;;;;;;;19.04;58.72;97020.05;1755684;82;20980;-87
2022/07/20 02:19:23;;;;;;;2.85;2.15;;;;;;;19.03;58.91;97022.88;1743499;82;20939;-85
2022/07/20 02:21:49;;;;;;;4.05;1.98;;;;;;;19.02;59.16;97023.39;1724435;83;20982;-85
2022/07/20 02:24:16;;;;;;;3.95;2.42;;;;;;;19.01;59.17;97024.93;1748770;82;20965;-85
2022/07/20 02:26:42;;;;;;;3.55;2.15;;;;;;;19.00;59.05;97024.64;1736583;82;20964;-86
2022/07/20 02:29:07;;;;;;;3.30;2.15;;;;;;;18.98;59.32;97020.91;1703909;84;21387;-87
2022/07/20 02:31:33;;;;;;;6.05;2.37;;;;;;;18.96;59.13;97023.47;1695685;84;20960;-85
2022/07/20 02:33:59;;;;;;;5.53;2.10;;;;;;;18.95;59.08;97024.50;1643704;86;21292;-85
2022/07/20 02:36:25;;;;;;;4.62;2.33;;;;;;;18.93;59.49;97022.09;1689625;84;20953;-85
2022/07/20 02:38:51;;;;;;;3.67;2.27;;;;;;;18.92;59.32;97023.63;1685920;84;21004;-88
2022/07/20 02:41:17;;;;;;;4.33;1.87;;;;;;;18.89;59.22;97025.67;1698899;84;20965;-87
2022/07/20 02:43:42;;;;;;;4.00;2.30;;;;;;;18.88;59.32;97019.31;1699127;84;20941;-87
2022/07/20 02:46:08;;;;;;;3.80;2.30;;;;;;;18.87;59.27;97022.94;1690023;84;20980;-87
2022/07/20 02:48:34;;;;;;;3.90;2.47;;;;;;;18.86;59.10;97022.64;1683038;84;20953;-86
2022/07/20 02:51:00;;;;;;;3.00;2.00;;;;;;;18.85;58.95;97027.63;1699529;84;21442;-86
2022/07/20 02:53:26;;;;;;;3.75;2.10;;;;;;;18.83;58.49;97030.98;1687338;84;21008;-85
2022/07/20 02:55:52;;;;;;;3.75;2.17;;;;;;;18.81;58.27;97035.67;1693009;84;20937;-85
2022/07/20 02:58:18;;;;;;;3.60;1.98;;;;;;;18.78;58.19;97029.53;1690613;84;21508;-86
2022/07/20 03:00:44;;;;;;;3.47;2.33;;;;;;;18.76;58.24;97035.53;1729146;82;20983;-85
2022/07/20 03:03:10;;;;;;;2.52;1.87;;;;;;;18.76;58.45;97034.20;1732620;82;20958;-88
2022/07/20 03:05:36;;;;;;;2.58;1.75;;;;;;;18.74;58.36;97030.48;1754913;82;20975;-87
2022/07/20 03:08:02;;;;;;;4.85;2.02;;;;;;;18.73;58.71;97034.65;1750117;82;21056;-86
2022/07/20 03:10:28;;;;;;;5.42;2.27;;;;;;;18.72;58.69;97033.04;1734782;82;20928;-87
2022/07/20 03:12:54;;;;;;;4.08;2.20;;;;;;;18.72;59.00;97038.30;1737673;82;21310;-87
2022/07/20 03:15:20;;;;;;;3.40;2.42;;;;;;;18.70;59.37;97038.50;1745848;81;20979;-87
2022/07/20 03:17:51;;;;;;;2.87;1.82;;;;;;;18.70;59.48;97041.64;1750174;82;20975;-85
2022/07/20 03:20:26;;;;;;;2.77;1.80;;;;;;;18.70;59.52;97042.95;1720524;83;21015;-86
2022/07/20 03:22:53;;;;;;;3.80;2.40;;;;;;;18.68;59.55;97035.28;1735575;82;21027;-87
2022/07/20 03:25:19;;;;;;;3.30;1.85;;;;;;;18.68;59.51;97044.48;1747894;82;21339;-85
2022/07/20 03:27:45;;;;;;;2.65;2.10;;;;;;;18.68;59.73;97045.81;1722928;82;20916;-85
2022/07/20 03:30:12;;;;;;;3.05;1.87;;;;;;;18.69;59.77;97042.66;1740627;81;20974;-86
2022/07/20 03:32:37;;;;;;;2.37;1.98;;;;;;;18.69;59.84;97043.47;1755068;81;20951;-87
2022/07/20 03:35:04;;;;;;;4.83;1.95;;;;;;;18.69;60.24;97047.92;1728973;81;21084;-87
2022/07/20 03:37:30;;;;;;;4.25;2.20;;;;;;;18.70;60.19;97049.53;1669013;84;20978;-87
2022/07/20 03:39:56;;;;;;;3.35;2.17;;;;;;;18.69;60.24;97046.61;1687351;84;20973;-86
2022/07/20 03:42:22;;;;;;;2.72;2.27;;;;;;;18.68;60.23;97055.53;1685700;84;21329;-86
2022/07/20 03:44:47;;;;;;;3.85;2.65;;;;;;;18.69;60.51;97054.51;1685765;84;20955;-85
2022/07/20 03:47:13;;;;;;;5.85;2.33;;;;;;;18.70;60.86;97053.48;1685024;85;20995;-85
2022/07/20 03:49:39;;;;;;;3.83;2.37;;;;;;;18.70;61.33;97053.48;1685043;84;21450;-87
2022/07/20 03:52:05;;;;;;;3.90;2.10;;;;;;;18.72;61.66;97056.22;1685323;84;20999;-87
2022/07/20 03:54:31;;;;;;;3.30;2.20;;;;;;;18.76;61.54;97055.27;1686178;84;21026;-85
2022/07/20 03:56:57;;;;;;;4.47;2.15;;;;;;;18.78;61.73;97057.98;1685416;85;21073;-85
2022/07/20 03:59:23;;;;;;;3.15;2.27;;;;;;;18.80;62.02;97056.44;1687396;83;21478;-87
2022/07/20 04:01:49;;;;;;;4.17;2.12;;;;;;;18.82;62.27;97060.97;1685583;85;21015;-86
2022/07/20 04:04:15;;;;;;;4.15;2.00;;;;;;;18.82;62.23;97068.88;1687081;84;21066;-87
2022/07/20 04:06:40;;;;;;;3.60;2.30;;;;;;;18.81;62.30;97065.95;1693917;84;20968;-87
2022/07/20 04:09:06;;;;;;;3.33;2.00;;;;;;;18.80;62.51;97065.66;1691770;84;21387;-85
2022/07/20 04:11:32;;;;;;;4.03;2.05;;;;;;;18.80;62.59;97065.66;1686752;84;20999;-87
2022/07/20 04:13:57;;;;;;;3.12;2.10;;;;;;;18.79;62.83;97062.22;1686484;85;21357;-87
2022/07/20 04:16:23;;;;;;;3.98;2.15;;;;;;;18.78;63.12;97065.87;1686299;84;21050;-87
2022/07/20 04:18:49;;;;;;;3.98;2.45;;;;;;;18.78;63.36;97069.02;1686316;84;21015;-87
2022/07/20 04:21:14;;;;;;;4.55;2.58;;;;;;;18.78;63.52;97065.87;1686953;84;20958;-87
2022/07/20 04:23:41;;;;;;;3.08;2.08;;;;;;;18.79;63.59;97066.17;1685488;85;20991;-87
2022/07/20 04:26:06;;;;;;;4.37;2.25;;;;;;;18.82;63.67;97066.23;1685109;85;21007;-87
2022/07/20 04:28:32;;;;;;;4.40;2.25;;;;;;;18.84;63.70;97065.00;1687261;85;20947;-86
2022/07/20 04:30:58;;;;;;;4.33;2.50;;;;;;;18.86;63.83;97071.36;1686416;85;21071;-86
2022/07/20 04:33:23;;;;;;;4.17;2.80;;;;;;;18.88;63.97;97066.20;1685545;84;20939;-85
2022/07/20 04:35:49;;;;;;;4.92;2.80;;;;;;;18.90;64.06;97071.23;1687897;84;21009;-86
2022/07/20 04:38:17;;;;;;;3.87;2.60;;;;;;;18.90;64.11;97068.61;1726726;82;20917;-85
2022/07/20 04:40:44;;;;;;;3.35;2.25;;;;;;;18.90;64.23;97071.23;1754894;81;20956;-87
2022/07/20 04:43:10;;;;;;;4.15;2.37;;;;;;;18.91;64.32;97075.48;1718107;82;20979;-87
2022/07/20 04:45:36;;;;;;;3.92;3.02;;;;;;;18.92;64.56;97077.09;1735390;81;21295;-86
2022/07/20 04:48:01;;;;;;;3.35;2.33;;;;;;;18.95;64.80;97075.34;1730466;82;20930;-86
2022/07/20 04:50:28;;;;;;;4.65;2.00;;;;;;;18.98;64.88;97070.14;1754998;81;20991;-87
2022/07/20 04:52:54;;;;;;;4.20;2.33;;;;;;;19.02;64.93;97066.04;1745122;81;20987;-85
2022/07/20 04:55:19;;;;;;;4.55;2.60;;;;;;;19.05;65.03;97069.06;1751817;82;21010;-87
2022/07/20 04:57:45;;;;;;;2.92;2.25;;;;;;;19.07;65.21;97068.33;1755018;81;21328;-86
2022/07/20 05:00:11;;;;;;;3.45;1.98;;;;;;;19.08;65.36;97071.26;1719629;81;21018;-87
2022/07/20 05:02:37;;;;;;;5.42;2.50;;;;;;;19.10;65.42;97077.62;1699315;82;21470;-85
2022/07/20 05:05:05;;;;;;;4.50;2.80;;;;;;;19.11;65.64;97076.59;1725134;82;21092;-85
2022/07/20 05:07:31;;;;;;;3.62;2.27;;;;;;;19.13;65.69;97076.67;1744745;82;20948;-85
2022/07/20 05:09:57;;;;;;;2.52;2.27;;;;;;;19.15;65.65;97077.77;1726641;82;20991;-87
2022/07/20 05:12:24;;;;;;;4.10;2.17;;;;;;;19.18;65.71;97076.81;1726755;82;21112;-87
2022/07/20 05:14:50;;;;;;;5.10;2.62;;;;;;;19.23;65.81;97076.17;1733175;82;21076;-87
2022/07/20 05:17:15;;;;;;;3.98;2.12;;;;;;;19.28;65.94;97082.09;1755524;81;20956;-87
2022/07/20 05:19:41;;;;;;;4.55;2.60;;;;;;;19.31;66.11;97073.74;1732116;81;20939;-87
2022/07/20 05:22:07;;;;;;;3.90;2.60;;;;;;;19.34;66.14;97081.20;1738613;82;20963;-87
2022/07/20 05:24:32;;;;;;;4.50;2.40;;;;;;;19.36;66.06;97081.30;1736616;81;21352;-86
2022/07/20 05:26:58;;;;;;;3.55;2.77;;;;;;;19.39;66.23;97080.05;1754977;82;20970;-87
2022/07/20 05:29:24;;;;;;;4.15;2.08;;;;;;;19.42;66.40;97085.68;1754969;81;20987;-87
2022/07/20 05:31:50;;;;;;;3.47;2.15;;;;;;;19.44;66.56;97085.45;1735516;81;21386;-87
2022/07/20 05:34:15;;;;;;;4.33;1.90;;;;;;;19.48;66.67;97089.25;1741886;81;21361;-87
2022/07/20 05:36:41;;;;;;;5.05;2.80;;;;;;;19.55;66.88;97090.55;1727782;82;21368;-86
2022/07/20 05:39:09;;;;;;;4.60;2.20;;;;;;;19.59;66.89;97092.51;1727522;82;20989;-86
2022/07/20 05:41:36;;;;;;;4.58;2.70;;;;;;;19.64;67.18;97097.91;1727249;82;21326;-86
2022/07/20 05:44:02;;;;;;;4.25;2.52;;;;;;;19.67;67.15;97090.88;1725971;82;20966;-85
2022/07/20 05:46:28;;;;;;;4.12;2.52;;;;;;;19.70;67.29;97097.05;1744479;82;20937;-85
2022/07/20 05:48:54;;;;;;;5.10;2.40;;;;;;;19.72;67.37;97094.98;1755092;81;20948;-85
2022/07/20 05:51:19;;;;;;;4.90;2.62;;;;;;;19.75;67.58;97093.73;1755584;82;20971;-86
2022/07/20 05:53:45;;;;;;;3.58;2.17;;;;;;;19.79;67.82;97084.34;1736122;81;21080;-85
2022/07/20 05:56:11;;;;;;;3.08;2.20;;;;;;;19.83;67.79;97079.42;1754915;81;21047;-86
2022/07/20 05:58:38;;;;;;;4.97;2.30;;;;;;;19.93;67.79;97088.94;1727592;81;21047;-85
2022/07/20 06:01:04;;;;;;;5.60;2.50;;;;;;;19.98;67.87;97091.70;1700714;82;20932;-86
2022/07/20 06:03:30;;;;;;;3.33;2.30;;;;;;;20.02;67.98;97087.09;1753887;81;21357;-86
2022/07/20 06:05:55;;;;;;;2.30;2.10;;;;;;;20.07;68.11;97095.65;1763411;81;20896;-85
2022/07/20 06:08:21;;;;;;;3.15;2.42;;;;;;;20.10;68.44;97092.55;1756589;81;20979;-86
2022/07/20 06:10:47;;;;;;;4.05;2.42;;;;;;;20.17;68.72;97093.77;1745452;81;20974;-85
2022/07/20 06:13:13;;;;;;;3.87;2.35;;;;;;;20.24;68.83;97095.81;1762877;81;21016;-87
2022/07/20 06:15:39;;;;;;;6.12;2.70;;;;;;;20.30;68.92;97095.70;1763988;81;21034;-87
2022/07/20 06:18:06;;;;;;;3.02;2.17;;;;;;;20.36;68.87;97100.61;1748190;81;21023;-88
2022/07/20 06:20:32;;;;;;;3.17;2.27;;;;;;;20.41;69.44;97105.20;1729162;81;20947;-87
2022/07/20 06:22:58;;;;;;;4.05;2.52;;;;;;;20.45;69.01;97109.03;1761247;81;21359;-86
2022/07/20 06:25:24;;;;;;;3.05;2.02;;;;;;;20.48;69.20;97109.38;1738628;81;21032;-86
2022/07/20 06:27:50;;;;;;;5.50;2.80;;;;;;;20.52;69.31;97105.78;1758906;81;21063;-87
2022/07/20 06:30:16;;;;;;;5.62;2.35;;;;;;;20.56;69.39;97111.70;1721197;81;20923;-85
2022/07/20 06:32:41;;;;;;;3.10;2.15;;;;;;;20.63;69.63;97108.94;1752744;81;21330;-85
2022/07/20 06:35:08;;;;;;;3.72;2.35;;;;;;;20.67;69.60;97106.96;1749678;81;21002;-85
2022/07/20 06:37:34;;;;;;;2.75;2.45;;;;;;;20.72;69.52;97108.11;1748618;81;21378;-87
2022/07/20 06:40:00;;;;;;;4.35;2.50;;;;;;;20.75;69.59;97112.41;1755830;81;21043;-85
2022/07/20 06:42:25;;;;;;;4.85;2.40;;;;;;;20.79;69.63;97115.39;1752981;81;21057;-85
2022/07/20 06:44:51;;;;;;;4.15;2.30;;;;;;;20.87;69.98;97118.52;1751311;81;21050;-86
2022/07/20 06:47:17;;;;;;;4.00;2.75;;;;;;;20.94;70.02;97119.71;1764004;81;21006;-87
2022/07/20 06:49:43;;;;;;;4.72;2.37;;;;;;;21.02;69.69;97122.55;1763446;81;21007;-87
2022/07/20 06:52:09;;;;;;;3.77;2.17;;;;;;;21.09;69.12;97126.67;1759645;81;21383;-86
2022/07/20 06:54:34;;;;;;;5.42;2.47;;;;;;;21.15;68.63;97128.41;1745224;81;21040;-86
2022/07/20 06:57:00;;;;;;;5.28;2.42;;;;;;;21.22;68.15;97129.08;1756748;81;20927;-87
2022/07/20 06:59:26;;;;;;;3.80;2.37;;;;;;;21.29;67.83;97131.62;1738894;81;21088;-86
2022/07/20 07:01:52;;;;;;;3.58;2.37;;;;;;;21.36;67.52;97133.64;1748482;81;20980;-88
2022/07/20 07:04:18;;;;;;;2.95;2.20;;;;;;;21.42;67.51;97132.70;1763290;81;21023;-87
2022/07/20 07:06:43;;;;;;;3.80;2.40;;;;;;;21.49;67.46;97139.20;1756207;81;20995;-87
2022/07/20 07:09:09;;;;;;;5.92;2.47;;;;;;;21.60;67.47;97133.59;1758346;81;20958;-88
2022/07/20 07:11:36;;;;;;;3.62;2.25;;;;;;;21.71;67.43;97130.13;1763471;81;20974;-87
2022/07/20 07:14:03;;;;;;;3.62;2.70;;;;;;;21.80;67.50;97129.55;1752015;81;21421;-86
2022/07/20 07:16:29;;;;;;;3.80;2.80;;;;;;;21.92;67.84;97132.65;1758254;81;20943;-88
2022/07/20 07:18:55;;;;;;;5.10;2.90;;;;;;;22.02;68.51;97138.95;1755766;81;20935;-86
2022/07/20 07:21:20;;;;;;;5.37;3.17;;;;;;;22.15;69.27;97134.73;1751370;81;21002;-85
2022/07/20 07:23:49;;;;;;;4.42;2.92;;;;;;;22.28;69.42;97135.47;1750699;81;20953;-86
2022/07/20 07:26:14;;;;;;;4.25;3.08;;;;;;;22.36;69.79;97130.60;1754799;81;20947;-87
2022/07/20 07:28:39;;;;;;;5.20;3.42;;;;;;;22.46;69.25;97133.44;1752306;81;20994;-87
2022/07/20 07:31:05;;;;;;;5.55;3.60;;;;;;;22.56;68.82;97128.02;1752651;81;21045;-87
2022/07/20 07:33:31;;;;;;;7.65;3.45;;;;;;;22.65;69.50;97134.02;1736778;81;20979;-86
2022/07/20 07:35:57;;;;;;;6.65;3.30;;;;;;;22.75;68.72;97133.36;1745468;81;21015;-85
2022/07/20 07:38:22;;;;;;;6.12;3.83;;;;;;;22.85;69.52;97137.53;1760562;81;20967;-87
2022/07/20 07:40:48;;;;;;;7.70;3.75;;;;;;;22.96;66.85;97137.98;1764288;81;20971;-87
2022/07/20 07:43:14;;;;;;;6.17;3.67;;;;;;;23.09;68.02;97132.85;1763151;81;20984;-87
2022/07/20 07:45:40;;;;;;;7.15;3.35;;;;;;;23.17;68.30;97131.66;1737458;81;21042;-87
2022/07/20 07:48:09;;;;;;;5.67;3.87;;;;;;;23.25;68.06;97137.85;1757976;81;20931;-87
2022/07/20 07:50:34;;;;;;;5.25;3.55;;;;;;;23.39;66.59;97135.66;1751474;81;20995;-87
2022/07/20 07:53:00;;;;;;;5.87;3.65;;;;;;;23.53;66.66;97140.89;1764199;81;20939;-87
2022/07/20 07:55:26;;;;;;;5.65;3.60;;;;;;;23.64;65.23;97141.34;1759680;81;21410;-87
2022/07/20 07:57:51;;;;;;;6.28;3.35;;;;;;;23.78;64.57;97139.12;1739857;81;20979;-87
2022/07/20 08:00:17;;;;;;;5.80;3.42;;;;;;;23.93;63.69;97133.48;1726268;82;21040;-87
2022/07/20 08:02:43;;;;;;;4.50;3.58;;;;;;;24.12;63.36;97123.84;1750598;82;21259;-86
2022/07/20 08:05:09;;;;;;;6.97;3.83;;;;;;;24.22;64.40;97123.94;1745692;81;20998;-86
2022/07/20 08:07:36;;;;;;;7.42;3.98;;;;;;;24.27;64.93;97129.84;1735844;82;20983;-86
2022/07/20 08:10:05;;;;;;;9.98;4.20;;;;;;;24.32;64.76;97125.41;1747310;82;20917;-86
2022/07/20 08:12:30;;;;;;;6.12;3.80;;;;;;;24.35;63.15;97116.93;1716291;83;20990;-86
2022/07/20 08:14:56;;;;;;;6.80;3.45;;;;;;;24.46;63.10;97120.48;1740315;82;20944;-86
2022/07/20 08:17:22;;;;;;;6.42;3.33;;;;;;;24.59;61.56;97116.62;1755202;81;20944;-85
2022/07/20 08:19:48;;;;;;;6.92;4.12;;;;;;;24.65;61.41;97101.79;1748248;81;21027;-86
2022/07/20 08:22:13;;;;;;;5.90;3.83;;;;;;;24.93;62.67;97120.61;1721052;82;20984;-87
2022/07/20 08:24:39;;;;;;;6.12;3.77;;;;;;;25.05;61.30;97127.08;1746579;82;21002;-86
2022/07/20 08:27:05;;;;;;;5.75;4.00;;;;;;;25.24;61.12;97121.64;1734824;82;21457;-86
2022/07/20 08:29:30;;;;;;;5.83;3.33;;;;;;;25.48;58.82;97127.34;1734584;82;21035;-86
2022/07/20 08:31:56;;;;;;;5.12;2.92;;;;;;;25.48;58.82;97127.34;1754555;82;20908;-86
2022/07/20 08:34:22;;;;;;;5.05;2.75;;;;;;;25.63;57.47;97127.95;1742693;81;20987;-88
2022/07/20 08:36:48;;;;;;;3.55;2.87;;;;;;;25.83;57.74;97121.94;1748696;82;20963;-88
2022/07/20 08:39:13;;;;;;;5.95;3.55;;;;;;;25.99;56.08;97126.25;1744372;82;20924;-86
2022/07/20 08:41:39;;;;;;;5.62;3.05;;;;;;;26.15;57.28;97117.23;1740538;82;20936;-86
2022/07/20 08:44:05;;;;;;;4.85;3.30;;;;;;;26.33;55.58;97121.27;1746668;82;20927;-86
2022/07/20 08:46:33;;;;;;;5.70;3.40;;;;;;;26.47;55.40;97112.26;1748179;82;21003;-88
2022/07/20 08:49:00;;;;;;;4.17;2.92;;;;;;;26.60;55.99;97114.41;1710298;82;21387;-88
2022/07/20 08:51:26;;;;;;;4.28;2.83;;;;;;;26.71;55.06;97116.02;1742252;82;21039;-86
2022/07/20 08:53:53;;;;;;;4.53;3.08;;;;;;;26.97;56.15;97104.78;1728295;82;21006;-86
2022/07/20 08:56:19;;;;;;;4.10;3.00;;;;;;;27.13;55.54;97113.59;1696022;82;21887;-86
2022/07/20 08:58:46;;;;;;;4.30;3.15;;;;;;;27.13;55.54;97113.59;1731056;81;20981;-86
2022/07/20 09:01:16;;;;;;;7.12;2.83;;;;;;;27.21;54.23;97107.72;1729553;81;20987;-86
2022/07/20 09:03:44;;;;;;;4.78;2.30;;;;;;;27.21;54.23;97107.72;1743341;82;20994;-88
2022/07/20 09:06:09;;;;;;;3.85;2.60;;;;;;;27.37;52.35;97112.48;1752098;82;21292;-88
2022/07/20 09:08:35;;;;;;;3.85;2.67;;;;;;;27.48;51.74;97124.17;1745207;81;21086;-88
2022/07/20 09:11:01;;;;;;;4.90;2.87;;;;;;;27.57;53.85;97116.41;1724657;82;20965;-88
2022/07/20 09:13:32;;;;;;;4.45;2.70;;;;;;;27.61;53.67;97113.99;1735233;82;20948;-86
2022/07/20 09:15:58;;;;;;;4.22;2.25;;;;;;;27.64;53.00;97113.47;1735323;82;20987;-87
2022/07/20 09:18:30;;;;;;;3.90;2.30;;;;;;;27.61;53.96;97116.66;1748406;82;21002;-88
2022/07/20 09:21:05;;;;;;;4.10;2.70;;;;;;;27.64;52.36;97110.80;1747967;82;21109;-87
2022/07/20 09:23:35;;;;;;;3.17;2.45;;;;;;;27.68;52.13;97112.67;1740405;82;21006;-87
2022/07/20 09:26:04;;;;;;;3.55;2.33;;;;;;;27.72;51.44;97111.59;1735998;82;20960;-85
2022/07/20 09:28:44;;;;;;;4.97;2.65;;;;;;;27.78;50.39;97112.61;1749317;82;20944;-88
2022/07/20 09:31:35;;;;;;;5.22;2.80;;;;;;;27.84;45.16;97113.41;1748120;82;21053;-88
2022/07/20 09:34:06;;;;;;;2.92;2.15;;;;;;;27.93;46.79;97110.41;1745256;82;21003;-88
2022/07/20 09:36:35;;;;;;;4.03;2.72;;;;;;;28.00;45.88;97108.79;1749706;82;21314;-87
2022/07/20 09:39:13;;;;;;;3.65;2.37;;;;;;;28.07;45.63;97108.73;1721898;82;21343;-88
2022/07/20 09:41:40;;;;;;;3.80;2.55;;;;;;;28.17;46.13;97109.77;1687344;85;21046;-87
2022/07/20 09:44:08;;;;;;;4.20;2.58;;;;;;;28.27;47.39;97109.17;1687329;84;21039;-87
2022/07/20 09:46:36;;;;;;;4.12;2.58;;;;;;;28.30;47.41;97110.48;1687928;84;20961;-87
2022/07/20 09:49:09;;;;;;;4.50;2.80;;;;;;;28.28;44.70;97113.44;1720873;83;20964;-88
2022/07/20 09:51:46;;;;;;;6.08;2.60;;;;;;;28.35;44.10;97113.14;1745426;82;21286;-88
2022/07/20 09:54:16;;;;;;;5.50;2.72;;;;;;;28.44;44.44;97107.45;1700056;82;21366;-87
2022/07/20 09:56:48;;;;;;;5.08;2.37;;;;;;;28.48;46.81;97103.70;1749353;82;20935;-87
2022/07/20 09:59:14;;;;;;;5.12;2.22;;;;;;;28.49;43.69;97101.30;1704221;82;20987;-87
2022/07/20 10:01:44;;;;;;;3.70;2.58;;;;;;;28.53;43.99;97099.66;1745687;81;21014;-87
2022/07/20 10:04:10;;;;;;;4.53;2.83;;;;;;;28.61;45.14;97101.71;1750581;81;21022;-87
2022/07/20 10:06:39;;;;;;;2.75;2.30;;;;;;;28.69;45.10;97103.80;1757801;81;21310;-88
2022/07/20 10:09:06;;;;;;;5.20;2.85;;;;;;;28.73;44.25;97101.36;1745601;81;21357;-88
2022/07/20 10:11:32;;;;;;;4.62;3.10;;;;;;;28.74;41.83;97097.06;1750664;81;20959;-88
2022/07/20 10:14:01;;;;;;;4.42;2.62;;;;;;;28.82;43.07;97099.69;1763288;81;21007;-88
2022/07/20 10:16:46;;;;;;;3.45;2.45;;;;;;;28.87;43.98;97097.78;1746852;81;20963;-88
2022/07/20 10:19:12;;;;;;;3.70;2.40;;;;;;;28.87;44.06;97096.45;1732070;81;21003;-88
2022/07/20 10:21:49;;;;;;;4.08;2.50;;;;;;;28.91;45.41;97086.77;1763377;81;20987;-88
2022/07/20 10:24:30;;;;;;;4.03;2.80;;;;;;;28.92;43.20;97090.25;1763489;81;20986;-87
2022/07/20 10:27:24;;;;;;;4.22;2.70;;;;;;;28.92;44.28;97090.25;1717347;81;20979;-87
2022/07/20 10:29:52;;;;;;;3.90;2.50;;;;;;;28.94;44.66;97096.11;1760106;81;21429;-88
2022/07/20 10:32:22;;;;;;;3.25;2.65;;;;;;;28.92;41.07;97096.39;1763683;81;20950;-87
2022/07/20 10:34:54;;;;;;;3.77;2.67;;;;;;;28.93;41.72;97095.31;1763366;81;20997;-87
2022/07/20 10:37:41;;;;;;;4.65;2.35;;;;;;;29.00;43.14;97099.01;1755830;81;20971;-87
2022/07/20 10:40:21;;;;;;;3.67;2.30;;;;;;;29.02;41.06;97092.83;1748110;81;20915;-87
2022/07/20 10:42:53;;;;;;;3.67;2.67;;;;;;;29.04;40.44;97095.22;1753552;81;20947;-87
2022/07/20 10:45:27;;;;;;;5.80;3.37;;;;;;;29.08;42.24;97095.70;1748568;81;20942;-86
2022/07/20 10:48:01;;;;;;;5.03;2.98;;;;;;;29.10;41.65;97092.20;1746084;81;20974;-86
2022/07/20 10:50:32;;;;;;;4.15;2.33;;;;;;;29.14;40.64;97101.83;1747986;81;20955;-89
2022/07/20 10:53:18;;;;;;;5.10;2.92;;;;;;;29.18;39.57;97098.83;1763515;81;21307;-87
2022/07/20 10:55:58;;;;;;;5.83;2.80;;;;;;;29.26;40.26;97096.86;1758239;81;21019;-87
2022/07/20 10:58:31;;;;;;;4.65;2.65;;;;;;;29.38;42.14;97096.47;1747973;81;20989;-88
2022/07/20 11:01:09;;;;;;;5.05;3.02;;;;;;;29.47;42.09;97097.48;1731469;82;21027;-88
2022/07/20 11:03:44;;;;;;;4.37;2.67;;;;;;;29.43;40.60;97090.51;1741367;82;21070;-88
2022/07/20 11:06:19;;;;;;;3.37;2.67;;;;;;;29.48;39.40;97089.70;1760380;81;21021;-88
2022/07/20 11:08:52;;;;;;;3.60;2.30;;;;;;;29.48;38.33;97091.84;1763451;81;20975;-89
2022/07/20 11:11:24;;;;;;;3.75;2.65;;;;;;;29.56;39.04;97081.02;1747458;81;21366;-88
2022/07/20 11:13:50;;;;;;;4.15;2.80;;;;;;;29.56;41.91;97084.50;1744925;81;21058;-89
2022/07/20 11:16:20;;;;;;;4.85;2.25;;;;;;;29.57;40.10;97081.28;1744360;81;20959;-88
2022/07/20 11:18:47;;;;;;;4.22;2.77;;;;;;;29.60;42.54;97080.70;1748194;81;21073;-89
2022/07/20 11:21:13;;;;;;;3.30;2.70;;;;;;;29.62;40.98;97075.88;1762680;81;21382;-86
2022/07/20 11:23:49;;;;;;;2.87;2.47;;;;;;;29.64;40.04;97072.91;1752718;81;21055;-88
2022/07/20 11:26:18;;;;;;;5.37;3.52;;;;;;;29.66;43.09;97080.91;1753081;81;20990;-88
2022/07/20 11:28:51;;;;;;;5.78;2.75;;;;;;;29.66;38.64;97072.08;1763487;81;20931;-87
2022/07/20 11:31:20;;;;;;;5.08;2.80;;;;;;;29.71;38.52;97074.69;1763015;81;20975;-88
2022/07/20 11:33:47;;;;;;;4.90;2.60;;;;;;;29.81;41.69;97074.56;1733440;83;20954;-88
2022/07/20 11:36:27;;;;;;;3.40;2.35;;;;;;;29.86;40.21;97068.58;1732522;83;20976;-86